createdAt,value
2016-10-29T10:12:31.875Z,1033.44
2016-10-29T10:12:57.601Z,1033.46
2016-10-29T10:13:23.158Z,1033.47
2016-10-29T10:13:48.729Z,1033.46
2016-10-29T10:14:14.284Z,1033.42
2016-10-29T10:14:39.858Z,1033.42
2016-10-29T10:15:05.409Z,1033.39
2016-10-29T10:15:30.966Z,1033.44
2016-10-29T10:15:56.635Z,1033.41
2016-10-29T10:16:22.212Z,1033.41
2016-10-29T10:16:47.775Z,1033.4
2016-10-29T10:17:13.333Z,1033.43
2016-10-29T10:17:38.906Z,1033.42
2016-10-29T10:18:04.459Z,1033.36
2016-10-29T10:18:30.019Z,1033.39
2016-10-29T10:18:55.579Z,1033.38
2016-10-29T10:19:21.185Z,1033.4
2016-10-29T10:19:46.789Z,1033.4
2016-10-29T10:20:12.345Z,1033.41
2016-10-29T10:20:37.892Z,1033.38
2016-10-29T10:21:03.481Z,1033.42
2016-10-29T10:21:29.048Z,1033.41
2016-10-29T10:21:54.593Z,1033.39
2016-10-29T10:22:20.182Z,1033.39
2016-10-29T10:22:45.752Z,1033.42
2016-10-29T10:23:11.301Z,1033.44
2016-10-29T10:23:36.987Z,1033.43
2016-10-29T10:24:02.576Z,1033.39
2016-10-29T10:24:28.119Z,1033.44
2016-10-29T10:24:53.786Z,1033.46
2016-10-29T10:25:19.401Z,1033.42
2016-10-29T10:25:45.003Z,1033.43
2016-10-29T10:26:10.680Z,1033.43
2016-10-29T10:26:36.259Z,1033.45
2016-10-29T10:27:01.851Z,1033.44
2016-10-29T10:27:27.448Z,1033.44
2016-10-29T10:27:53.024Z,1033.45
2016-10-29T10:28:18.581Z,1033.42
2016-10-29T10:28:44.242Z,1033.45
2016-10-29T10:29:09.784Z,1033.41
2016-10-29T10:29:35.344Z,1033.43
2016-10-29T10:30:00.899Z,1033.41
2016-10-29T10:30:26.478Z,1033.4
2016-10-29T10:30:52.040Z,1033.44
2016-10-29T10:31:17.652Z,1033.43
2016-10-29T10:31:43.200Z,1033.38
2016-10-29T10:32:08.793Z,1033.45
2016-10-29T10:32:34.373Z,1033.38
2016-10-29T10:33:32.871Z,1033.41
2016-10-29T10:33:58.544Z,1033.42
2016-10-29T10:34:24.090Z,1033.43
2016-10-29T10:34:49.668Z,1033.38
2016-10-29T10:35:15.235Z,1033.45
2016-10-29T10:35:40.872Z,1033.39
2016-10-29T10:36:06.420Z,1033.34
2016-10-29T10:36:31.989Z,1033.35
2016-10-29T10:36:57.531Z,1033.36
2016-10-29T10:37:23.123Z,1033.35
2016-10-29T10:37:48.668Z,1033.36
2016-10-29T10:38:14.280Z,1033.35
2016-10-29T10:38:39.845Z,1033.33
2016-10-29T10:39:05.407Z,1033.36
2016-10-29T10:39:30.961Z,1033.37
2016-10-29T10:39:56.546Z,1033.35
2016-10-29T10:40:22.133Z,1033.36
2016-10-29T10:40:47.696Z,1033.34
2016-10-29T10:41:13.386Z,1033.28
2016-10-29T10:41:38.978Z,1033.26
2016-10-29T10:42:04.527Z,1033.26
2016-10-29T10:42:30.097Z,1033.28
2016-10-29T10:42:55.680Z,1033.2
2016-10-29T10:43:21.240Z,1033.18
2016-10-29T10:43:46.813Z,1033.18
2016-10-29T10:44:12.392Z,1033.16
2016-10-29T10:44:37.953Z,1033.15
2016-10-29T10:45:03.698Z,1033.16
2016-10-29T10:45:29.246Z,1033.13
2016-10-29T10:45:54.832Z,1033.15
2016-10-29T10:46:20.467Z,1033.13
2016-10-29T10:46:46.040Z,1033.13
2016-10-29T10:47:11.602Z,1033.1
2016-10-29T10:47:37.146Z,1033.1
2016-10-29T10:48:02.861Z,1033.09
2016-10-29T10:48:28.411Z,1033.11
2016-10-29T10:48:53.993Z,1033.07
2016-10-29T10:49:19.541Z,1033.14
2016-10-29T10:49:45.145Z,1033.13
2016-10-29T10:50:10.707Z,1033.19
2016-10-29T10:50:36.272Z,1033.19
2016-10-29T10:51:01.850Z,1033.18
2016-10-29T10:51:27.416Z,1033.23
2016-10-29T10:51:53.007Z,1033.27
2016-10-29T10:52:18.576Z,1033.25
2016-10-29T10:52:44.195Z,1033.26
2016-10-29T10:53:09.764Z,1033.27
2016-10-29T10:53:35.324Z,1033.29
2016-10-29T10:54:00.887Z,1033.29
2016-10-29T10:54:26.456Z,1033.29
2016-10-29T10:54:52.020Z,1033.25
2016-10-29T10:55:17.583Z,1033.28
2016-10-29T10:55:43.187Z,1033.26
2016-10-29T10:56:08.743Z,1033.23
2016-10-29T10:56:34.448Z,1033.27
2016-10-29T10:57:00.020Z,1033.24
2016-10-29T10:57:25.572Z,1033.24
2016-10-29T10:57:51.130Z,1033.22
2016-10-29T10:58:16.692Z,1033.26
2016-10-29T10:58:42.253Z,1033.22
2016-10-29T10:59:07.804Z,1033.24
2016-10-29T10:59:33.363Z,1033.26
2016-10-29T10:59:58.956Z,1033.25
2016-10-29T11:00:24.509Z,1033.26
2016-10-29T11:00:50.071Z,1033.21
2016-10-29T11:01:15.663Z,1033.18
2016-10-29T11:01:41.284Z,1033.17
2016-10-29T11:02:06.837Z,1033.2
2016-10-29T11:02:32.385Z,1033.18
2016-10-29T11:02:57.965Z,1033.13
2016-10-29T11:03:23.699Z,1033.18
2016-10-29T11:03:49.275Z,1033.16
2016-10-29T11:04:14.840Z,1033.17
2016-10-29T11:04:40.403Z,1033.15
2016-10-29T11:05:05.990Z,1033.13
2016-10-29T11:05:31.563Z,1033.2
2016-10-29T11:05:57.145Z,1033.16
2016-10-29T11:06:22.712Z,1033.2
2016-10-29T11:06:48.278Z,1033.15
2016-10-29T11:07:13.837Z,1033.18
2016-10-29T11:07:39.411Z,1033.17
2016-10-29T11:08:04.989Z,1033.19
2016-10-29T11:08:30.556Z,1033.19
2016-10-29T11:08:56.124Z,1033.14
2016-10-29T11:09:21.681Z,1033.1
2016-10-29T11:09:47.259Z,1033.15
2016-10-29T11:10:12.807Z,1033.09
2016-10-29T11:10:38.367Z,1033.09
2016-10-29T11:11:04.060Z,1033.1
2016-10-29T11:11:29.588Z,1033.04
2016-10-29T11:11:55.158Z,1032.96
2016-10-29T11:12:20.727Z,1033
2016-10-29T11:12:46.300Z,1033.01
2016-10-29T11:13:11.890Z,1032.99
2016-10-29T11:13:37.463Z,1032.95
2016-10-29T11:14:03.034Z,1032.97
2016-10-29T11:14:28.631Z,1032.96
2016-10-29T11:14:54.196Z,1032.93
2016-10-29T11:15:19.755Z,1032.92
2016-10-29T11:15:45.345Z,1032.96
2016-10-29T11:16:10.921Z,1032.99
2016-10-29T11:16:36.470Z,1033.01
2016-10-29T11:17:02.071Z,1032.97
2016-10-29T11:17:27.653Z,1032.98
2016-10-29T11:17:53.220Z,1032.98
2016-10-29T11:18:18.768Z,1033
2016-10-29T11:18:44.332Z,1032.99
2016-10-29T11:19:52.993Z,1033.04
2016-10-29T11:20:51.068Z,1032.9
2016-10-29T11:21:16.641Z,1032.85
2016-10-29T11:21:42.216Z,1032.85
2016-10-29T11:22:07.834Z,1032.9
2016-10-29T11:22:33.382Z,1032.86
2016-10-29T11:22:59.009Z,1032.87
2016-10-29T11:23:24.562Z,1032.89
2016-10-29T11:23:50.112Z,1032.87
2016-10-29T11:24:15.687Z,1032.86
2016-10-29T11:24:41.256Z,1032.82
2016-10-29T11:25:06.815Z,1032.87
2016-10-29T11:25:32.389Z,1032.83
2016-10-29T11:25:57.984Z,1032.87
2016-10-29T11:26:23.542Z,1032.83
2016-10-29T11:26:49.102Z,1032.8
2016-10-29T11:27:14.642Z,1032.84
2016-10-29T11:27:40.186Z,1032.88
2016-10-29T11:28:05.790Z,1032.81
2016-10-29T11:28:31.343Z,1032.89
2016-10-29T11:28:56.915Z,1032.82
2016-10-29T11:29:22.483Z,1032.94
2016-10-29T11:29:48.029Z,1032.86
2016-10-29T11:30:13.594Z,1032.87
2016-10-29T11:30:39.164Z,1032.81
2016-10-29T11:31:04.705Z,1032.82
2016-10-29T11:31:30.328Z,1032.78
2016-10-29T11:31:55.926Z,1032.8
2016-10-29T11:32:21.483Z,1032.87
2016-10-29T11:32:47.182Z,1032.9
2016-10-29T11:33:12.742Z,1032.87
2016-10-29T11:33:38.299Z,1032.84
2016-10-29T11:34:03.896Z,1032.86
2016-10-29T11:34:29.449Z,1032.86
2016-10-29T11:34:55.023Z,1032.83
2016-10-29T11:35:20.589Z,1032.87
2016-10-29T11:35:46.148Z,1032.86
2016-10-29T11:36:11.768Z,1032.85
2016-10-29T11:36:37.374Z,1032.95
2016-10-29T11:37:02.939Z,1032.85
2016-10-29T11:37:28.517Z,1032.83
2016-10-29T11:37:54.072Z,1032.81
2016-10-29T11:38:19.692Z,1032.78
2016-10-29T11:39:28.008Z,1032.82
2016-10-29T11:39:53.554Z,1032.83
2016-10-29T11:40:19.122Z,1032.87
2016-10-29T11:40:44.727Z,1032.81
2016-10-29T11:41:10.295Z,1032.81
2016-10-29T11:41:35.866Z,1032.88
2016-10-29T11:42:01.439Z,1032.88
2016-10-29T11:42:26.984Z,1032.9
2016-10-29T11:42:52.533Z,1032.85
2016-10-29T11:43:18.085Z,1032.89
2016-10-29T11:43:43.649Z,1032.84
2016-10-29T11:44:09.203Z,1032.9
2016-10-29T11:44:34.771Z,1032.81
2016-10-29T11:45:00.330Z,1032.87
2016-10-29T11:45:25.900Z,1032.84
2016-10-29T11:45:51.463Z,1032.87
2016-10-29T11:46:17.038Z,1032.88
2016-10-29T11:46:42.716Z,1032.94
2016-10-29T11:47:08.271Z,1033.03
2016-10-29T11:47:33.837Z,1033.01
2016-10-29T11:47:59.506Z,1033.01
2016-10-29T11:48:25.059Z,1033.05
2016-10-29T11:48:50.631Z,1032.94
2016-10-29T11:49:16.199Z,1032.95
2016-10-29T11:49:41.767Z,1032.96
2016-10-29T11:50:07.312Z,1032.97
2016-10-29T11:50:32.872Z,1033.03
2016-10-29T11:50:58.415Z,1032.98
2016-10-29T11:51:23.991Z,1032.99
2016-10-29T11:51:49.582Z,1032.94
2016-10-29T11:52:15.209Z,1033.08
2016-10-29T11:52:40.748Z,1032.96
2016-10-29T11:53:06.314Z,1032.97
2016-10-29T11:53:31.879Z,1033.03
2016-10-29T11:53:57.430Z,1032.98
2016-10-29T11:54:23.048Z,1032.98
2016-10-29T11:54:48.628Z,1032.82
2016-10-29T11:55:14.237Z,1032.85
2016-10-29T11:55:39.816Z,1032.85
2016-10-29T11:56:05.384Z,1032.86
2016-10-29T11:56:30.933Z,1032.84
2016-10-29T11:56:56.519Z,1032.79
2016-10-29T11:57:22.089Z,1032.82
2016-10-29T11:57:47.655Z,1032.85
2016-10-29T11:58:13.213Z,1032.88
2016-10-29T11:58:38.803Z,1032.79
2016-10-29T11:59:04.472Z,1032.73
2016-10-29T11:59:30.039Z,1032.78
2016-10-29T11:59:55.615Z,1032.79
2016-10-29T12:00:21.274Z,1032.8
2016-10-29T12:00:46.834Z,1032.73
2016-10-29T12:01:12.395Z,1032.72
2016-10-29T12:01:37.952Z,1032.69
2016-10-29T12:02:03.514Z,1032.76
2016-10-29T12:02:29.076Z,1032.7
2016-10-29T12:02:54.639Z,1032.76
2016-10-29T12:03:20.186Z,1032.7
2016-10-29T12:03:45.780Z,1032.72
2016-10-29T12:04:11.340Z,1032.78
2016-10-29T12:04:36.951Z,1032.8
2016-10-29T12:05:02.520Z,1032.7
2016-10-29T12:05:28.079Z,1032.73
2016-10-29T12:05:53.620Z,1032.67
2016-10-29T12:06:19.172Z,1032.73
2016-10-29T12:06:44.751Z,1032.66
2016-10-29T12:07:10.314Z,1032.63
2016-10-29T12:07:35.975Z,1032.61
2016-10-29T12:08:01.543Z,1032.59
2016-10-29T12:08:27.254Z,1032.64
2016-10-29T12:08:52.799Z,1032.63
2016-10-29T12:09:18.382Z,1032.6
2016-10-29T12:09:43.954Z,1032.59
2016-10-29T12:10:09.515Z,1032.67
2016-10-29T12:10:35.082Z,1032.63
2016-10-29T12:11:00.795Z,1032.66
2016-10-29T12:11:26.337Z,1032.65
2016-10-29T12:11:51.938Z,1032.66
2016-10-29T12:12:17.583Z,1032.61
2016-10-29T12:12:43.212Z,1032.61
2016-10-29T12:13:08.780Z,1032.64
2016-10-29T12:13:34.444Z,1032.62
2016-10-29T12:14:00.022Z,1032.59
2016-10-29T12:14:25.603Z,1032.6
2016-10-29T12:14:51.170Z,1032.57
2016-10-29T12:15:16.809Z,1032.56
2016-10-29T12:15:42.379Z,1032.53
2016-10-29T12:16:08.025Z,1032.57
2016-10-29T12:16:33.598Z,1032.56
2016-10-29T12:16:59.199Z,1032.56
2016-10-29T12:17:24.754Z,1032.61
2016-10-29T12:17:50.414Z,1032.57
2016-10-29T12:18:15.990Z,1032.64
2016-10-29T12:18:41.557Z,1032.53
2016-10-29T12:19:07.120Z,1032.57
2016-10-29T12:19:32.675Z,1032.53
2016-10-29T12:19:58.219Z,1032.52
2016-10-29T12:20:23.764Z,1032.54
2016-10-29T12:20:49.311Z,1032.55
2016-10-29T12:21:14.886Z,1032.56
2016-10-29T12:21:40.554Z,1032.49
2016-10-29T12:22:38.710Z,1032.56
2016-10-29T12:23:04.310Z,1032.5
2016-10-29T12:23:29.874Z,1032.49
2016-10-29T12:23:55.432Z,1032.46
2016-10-29T12:24:21.022Z,1032.53
2016-10-29T12:24:46.577Z,1032.51
2016-10-29T12:25:12.238Z,1032.5
2016-10-29T12:25:37.780Z,1032.5
2016-10-29T12:26:03.349Z,1032.49
2016-10-29T12:26:28.898Z,1032.48
2016-10-29T12:26:54.544Z,1032.53
2016-10-29T12:27:20.119Z,1032.47
2016-10-29T12:27:45.696Z,1032.52
2016-10-29T12:28:11.259Z,1032.49
2016-10-29T12:28:36.791Z,1032.5
2016-10-29T12:29:02.386Z,1032.52
2016-10-29T12:29:27.963Z,1032.55
2016-10-29T12:29:53.544Z,1032.53
2016-10-29T12:30:19.144Z,1032.46
2016-10-29T12:30:44.793Z,1032.51
2016-10-29T12:31:10.358Z,1032.48
2016-10-29T12:31:35.913Z,1032.45
2016-10-29T12:32:01.624Z,1032.41
2016-10-29T12:32:27.176Z,1032.45
2016-10-29T12:32:52.726Z,1032.46
2016-10-29T12:33:18.283Z,1032.43
2016-10-29T12:33:43.851Z,1032.43
2016-10-29T12:34:09.443Z,1032.45
2016-10-29T12:34:34.992Z,1032.43
2016-10-29T12:35:00.523Z,1032.4
2016-10-29T12:35:26.071Z,1032.4
2016-10-29T12:35:51.616Z,1032.37
2016-10-29T12:36:17.264Z,1032.34
2016-10-29T12:36:42.816Z,1032.4
2016-10-29T12:37:08.363Z,1032.37
2016-10-29T12:37:33.928Z,1032.39
2016-10-29T12:37:59.619Z,1032.36
2016-10-29T12:38:25.173Z,1032.36
2016-10-29T12:38:50.770Z,1032.42
2016-10-29T12:39:16.408Z,1032.4
2016-10-29T12:39:41.979Z,1032.43
2016-10-29T12:40:07.533Z,1032.42
2016-10-29T12:40:33.181Z,1032.43
2016-10-29T12:40:58.743Z,1032.43
2016-10-29T12:41:24.295Z,1032.44
2016-10-29T12:41:49.868Z,1032.38
2016-10-29T12:42:15.429Z,1032.45
2016-10-29T12:42:40.973Z,1032.47
2016-10-29T12:43:06.564Z,1032.46
2016-10-29T12:43:32.108Z,1032.41
2016-10-29T12:43:57.680Z,1032.45
2016-10-29T12:44:23.330Z,1032.46
2016-10-29T12:44:48.952Z,1032.39
2016-10-29T12:45:14.513Z,1032.42
2016-10-29T12:45:40.074Z,1032.43
2016-10-29T12:46:05.613Z,1032.43
2016-10-29T12:46:31.176Z,1032.39
2016-10-29T12:46:56.744Z,1032.36
2016-10-29T12:47:22.314Z,1032.39
2016-10-29T12:47:47.863Z,1032.37
2016-10-29T12:48:13.484Z,1032.37
2016-10-29T12:48:39.107Z,1032.4
2016-10-29T12:49:04.676Z,1032.4
2016-10-29T12:49:30.226Z,1032.41
2016-10-29T12:49:55.891Z,1032.37
2016-10-29T12:50:21.458Z,1032.38
2016-10-29T12:50:47.007Z,1032.35
2016-10-29T12:51:12.564Z,1032.37
2016-10-29T12:51:38.144Z,1032.38
2016-10-29T12:52:03.702Z,1032.34
2016-10-29T12:52:29.240Z,1032.34
2016-10-29T12:52:54.817Z,1032.34
2016-10-29T12:53:20.465Z,1032.32
2016-10-29T12:53:46.117Z,1032.36
2016-10-29T12:54:11.714Z,1032.33
2016-10-29T12:54:37.266Z,1032.38
2016-10-29T12:55:02.808Z,1032.35
2016-10-29T12:55:28.368Z,1032.36
2016-10-29T12:55:54.040Z,1032.32
2016-10-29T12:56:19.605Z,1032.31
2016-10-29T12:56:45.175Z,1032.37
2016-10-29T12:57:10.765Z,1032.34
2016-10-29T12:57:36.360Z,1032.31
2016-10-29T12:58:01.915Z,1032.34
2016-10-29T12:58:27.473Z,1032.34
2016-10-29T12:58:53.072Z,1032.37
2016-10-29T12:59:18.636Z,1032.32
2016-10-29T12:59:44.189Z,1032.33
2016-10-29T13:00:09.730Z,1032.32
2016-10-29T13:00:35.293Z,1032.35
2016-10-29T13:01:00.868Z,1032.33
2016-10-29T13:01:26.441Z,1032.3
2016-10-29T13:01:52.016Z,1032.32
2016-10-29T13:02:17.572Z,1032.29
2016-10-29T13:02:43.197Z,1032.29
2016-10-29T13:03:08.763Z,1032.32
2016-10-29T13:03:34.326Z,1032.28
2016-10-29T13:03:59.884Z,1032.32
2016-10-29T13:04:25.459Z,1032.29
2016-10-29T13:04:50.998Z,1032.34
2016-10-29T13:05:16.545Z,1032.33
2016-10-29T13:05:42.319Z,1032.32
2016-10-29T13:06:07.805Z,1032.33
2016-10-29T13:06:33.372Z,1032.36
2016-10-29T13:06:58.965Z,1032.33
2016-10-29T13:07:24.591Z,1032.34
2016-10-29T13:07:50.159Z,1032.34
2016-10-29T13:08:15.707Z,1032.34
2016-10-29T13:08:41.271Z,1032.32
2016-10-29T13:09:06.983Z,1032.39
2016-10-29T13:09:32.554Z,1032.33
2016-10-29T13:09:58.106Z,1032.35
2016-10-29T13:10:23.673Z,1032.35
2016-10-29T13:10:49.204Z,1032.35
2016-10-29T13:11:14.758Z,1032.36
2016-10-29T13:11:40.323Z,1032.36
2016-10-29T13:12:05.908Z,1032.32
2016-10-29T13:12:31.581Z,1032.34
2016-10-29T13:12:57.150Z,1032.36
2016-10-29T13:13:22.709Z,1032.34
2016-10-29T13:13:48.262Z,1032.35
2016-10-29T13:14:13.813Z,1032.37
2016-10-29T13:14:39.376Z,1032.35
2016-10-29T13:15:04.949Z,1032.38
2016-10-29T13:15:30.522Z,1032.39
2016-10-29T13:15:56.066Z,1032.39
2016-10-29T13:16:21.634Z,1032.43
2016-10-29T13:16:47.181Z,1032.44
2016-10-29T13:17:12.747Z,1032.4
2016-10-29T13:17:38.297Z,1032.43
2016-10-29T13:18:03.880Z,1032.45
2016-10-29T13:18:29.446Z,1032.42
2016-10-29T13:18:55.070Z,1032.4
2016-10-29T13:19:20.625Z,1032.46
2016-10-29T13:19:46.271Z,1032.48
2016-10-29T13:20:11.896Z,1032.47
2016-10-29T13:20:37.450Z,1032.48
2016-10-29T13:21:03.045Z,1032.5
2016-10-29T13:21:28.734Z,1032.5
2016-10-29T13:21:54.327Z,1032.51
2016-10-29T13:22:19.880Z,1032.55
2016-10-29T13:23:28.264Z,1032.49
2016-10-29T13:23:53.838Z,1032.5
2016-10-29T13:24:19.383Z,1032.53
2016-10-29T13:24:44.937Z,1032.51
2016-10-29T13:25:10.584Z,1032.54
2016-10-29T13:25:36.191Z,1032.55
2016-10-29T13:26:01.748Z,1032.59
2016-10-29T13:26:27.400Z,1032.58
2016-10-29T13:26:52.959Z,1032.57
2016-10-29T13:27:18.534Z,1032.58
2016-10-29T13:27:44.097Z,1032.57
2016-10-29T13:28:09.681Z,1032.54
2016-10-29T13:28:35.252Z,1032.55
2016-10-29T13:29:00.819Z,1032.54
2016-10-29T13:29:26.391Z,1032.55
2016-10-29T13:29:51.945Z,1032.55
2016-10-29T13:30:17.498Z,1032.57
2016-10-29T13:30:43.059Z,1032.56
2016-10-29T13:31:08.651Z,1032.57
2016-10-29T13:31:34.204Z,1032.57
2016-10-29T13:31:59.836Z,1032.51
2016-10-29T13:32:25.412Z,1032.51
2016-10-29T13:32:50.967Z,1032.49
2016-10-29T13:33:16.534Z,1032.54
2016-10-29T13:33:42.134Z,1032.5
2016-10-29T13:34:07.690Z,1032.54
2016-10-29T13:34:33.236Z,1032.53
2016-10-29T13:34:58.770Z,1032.52
2016-10-29T13:35:24.331Z,1032.51
2016-10-29T13:35:49.955Z,1032.51
2016-10-29T13:36:15.521Z,1032.52
2016-10-29T13:36:41.085Z,1032.51
2016-10-29T13:37:06.651Z,1032.48
2016-10-29T13:37:32.214Z,1032.48
2016-10-29T13:37:57.777Z,1032.53
2016-10-29T13:38:23.324Z,1032.5
2016-10-29T13:38:48.903Z,1032.42
2016-10-29T13:39:14.448Z,1032.48
2016-10-29T13:39:40.115Z,1032.48
2016-10-29T13:40:05.649Z,1032.44
2016-10-29T13:40:31.215Z,1032.45
2016-10-29T13:40:56.791Z,1032.47
2016-10-29T13:41:22.445Z,1032.46
2016-10-29T13:41:48.029Z,1032.46
2016-10-29T13:42:13.587Z,1032.43
2016-10-29T13:42:39.175Z,1032.39
2016-10-29T13:43:04.746Z,1032.39
2016-10-29T13:43:30.299Z,1032.37
2016-10-29T13:43:55.889Z,1032.34
2016-10-29T13:44:21.455Z,1032.36
2016-10-29T13:44:47.011Z,1032.38
2016-10-29T13:45:12.690Z,1032.33
2016-10-29T13:45:38.237Z,1032.41
2016-10-29T13:46:03.803Z,1032.36
2016-10-29T13:46:29.341Z,1032.42
2016-10-29T13:46:55.000Z,1032.37
2016-10-29T13:47:20.542Z,1032.44
2016-10-29T13:47:46.114Z,1032.38
2016-10-29T13:48:11.677Z,1032.42
2016-10-29T13:48:37.251Z,1032.37
2016-10-29T13:49:35.729Z,1032.39
2016-10-29T13:50:01.265Z,1032.38
2016-10-29T13:50:26.831Z,1032.4
2016-10-29T13:50:52.414Z,1032.36
2016-10-29T13:51:18.064Z,1032.42
2016-10-29T13:51:43.617Z,1032.38
2016-10-29T13:52:09.164Z,1032.38
2016-10-29T13:52:34.742Z,1032.33
2016-10-29T13:53:00.300Z,1032.42
2016-10-29T13:53:25.912Z,1032.42
2016-10-29T13:53:51.475Z,1032.41
2016-10-29T13:54:17.106Z,1032.36
2016-10-29T13:54:42.670Z,1032.34
2016-10-29T13:55:08.228Z,1032.46
2016-10-29T13:55:33.787Z,1032.4
2016-10-29T13:55:59.338Z,1032.46
2016-10-29T13:56:24.902Z,1032.43
2016-10-29T13:56:50.449Z,1032.43
2016-10-29T13:57:16.103Z,1032.37
2016-10-29T13:57:41.658Z,1032.35
2016-10-29T13:58:07.265Z,1032.46
2016-10-29T13:58:32.831Z,1032.37
2016-10-29T13:58:58.405Z,1032.39
2016-10-29T13:59:23.958Z,1032.38
2016-10-29T13:59:49.506Z,1032.33
2016-10-29T14:00:15.066Z,1032.35
2016-10-29T14:00:40.614Z,1032.37
2016-10-29T14:01:06.176Z,1032.4
2016-10-29T14:01:31.735Z,1032.41
2016-10-29T14:02:29.866Z,1032.43
2016-10-29T14:02:55.420Z,1032.47
2016-10-29T14:03:21.121Z,1032.42
2016-10-29T14:03:46.674Z,1032.47
2016-10-29T14:04:12.297Z,1032.42
2016-10-29T14:04:37.872Z,1032.42
2016-10-29T14:05:03.460Z,1032.39
2016-10-29T14:05:29.027Z,1032.46
2016-10-29T14:05:54.649Z,1032.41
2016-10-29T14:06:20.234Z,1032.37
2016-10-29T14:06:45.773Z,1032.42
2016-10-29T14:07:11.334Z,1032.37
2016-10-29T14:07:36.895Z,1032.4
2016-10-29T14:08:02.505Z,1032.35
2016-10-29T14:08:28.083Z,1032.38
2016-10-29T14:08:53.640Z,1032.37
2016-10-29T14:09:19.203Z,1032.36
2016-10-29T14:09:44.770Z,1032.37
2016-10-29T14:10:10.358Z,1032.36
2016-10-29T14:10:35.904Z,1032.39
2016-10-29T14:11:01.466Z,1032.3
2016-10-29T14:11:27.041Z,1032.38
2016-10-29T14:11:52.612Z,1032.32
2016-10-29T14:12:18.180Z,1032.33
2016-10-29T14:12:43.741Z,1032.31
2016-10-29T14:13:09.346Z,1032.29
2016-10-29T14:13:34.902Z,1032.29
2016-10-29T14:14:00.459Z,1032.31
2016-10-29T14:14:26.028Z,1032.25
2016-10-29T14:14:51.584Z,1032.23
2016-10-29T14:15:17.158Z,1032.24
2016-10-29T14:15:42.854Z,1032.25
2016-10-29T14:16:08.432Z,1032.25
2016-10-29T14:16:33.995Z,1032.23
2016-10-29T14:16:59.555Z,1032.21
2016-10-29T14:17:25.134Z,1032.23
2016-10-29T14:17:50.676Z,1032.26
2016-10-29T14:18:16.274Z,1032.26
2016-10-29T14:18:41.831Z,1032.29
2016-10-29T14:19:07.394Z,1032.27
2016-10-29T14:19:32.963Z,1032.25
2016-10-29T14:19:58.545Z,1032.27
2016-10-29T14:20:24.118Z,1032.26
2016-10-29T14:20:49.718Z,1032.25
2016-10-29T14:21:15.316Z,1032.3
2016-10-29T14:21:40.893Z,1032.31
2016-10-29T14:22:06.513Z,1032.35
2016-10-29T14:22:32.094Z,1032.35
2016-10-29T14:22:57.683Z,1032.36
2016-10-29T14:23:23.257Z,1032.35
2016-10-29T14:23:48.842Z,1032.34
2016-10-29T14:24:14.416Z,1032.34
2016-10-29T14:24:39.965Z,1032.34
2016-10-29T14:25:05.533Z,1032.32
2016-10-29T14:25:31.104Z,1032.3
2016-10-29T14:25:56.692Z,1032.28
2016-10-29T14:26:22.252Z,1032.3
2016-10-29T14:26:47.823Z,1032.27
2016-10-29T14:27:13.375Z,1032.24
2016-10-29T14:27:38.923Z,1032.34
2016-10-29T14:28:04.517Z,1032.32
2016-10-29T14:28:30.082Z,1032.31
2016-10-29T14:28:55.639Z,1032.32
2016-10-29T14:29:21.199Z,1032.25
2016-10-29T14:29:46.743Z,1032.26
2016-10-29T14:30:12.315Z,1032.28
2016-10-29T14:30:37.893Z,1032.24
2016-10-29T14:31:03.470Z,1032.29
2016-10-29T14:31:29.030Z,1032.24
2016-10-29T14:31:54.651Z,1032.26
2016-10-29T14:32:20.202Z,1032.19
2016-10-29T14:32:45.754Z,1032.19
2016-10-29T14:33:11.460Z,1032.19
2016-10-29T14:33:37.184Z,1032.22
2016-10-29T14:34:02.733Z,1032.2
2016-10-29T14:34:28.298Z,1032.19
2016-10-29T14:34:53.866Z,1032.19
2016-10-29T14:35:19.451Z,1032.2
2016-10-29T14:35:45.023Z,1032.16
2016-10-29T14:36:10.583Z,1032.16
2016-10-29T14:36:36.290Z,1032.21
2016-10-29T14:37:01.861Z,1032.2
2016-10-29T14:37:27.425Z,1032.14
2016-10-29T14:37:53.053Z,1032.27
2016-10-29T14:38:18.702Z,1032.31
2016-10-29T14:38:44.260Z,1032.26
2016-10-29T14:39:09.806Z,1032.17
2016-10-29T14:39:35.392Z,1032.14
2016-10-29T14:40:00.941Z,1032.19
2016-10-29T14:40:26.518Z,1032.22
2016-10-29T14:40:52.259Z,1032.19
2016-10-29T14:41:17.804Z,1032.16
2016-10-29T14:41:43.360Z,1032.24
2016-10-29T14:43:44.672Z,1032.32
2016-10-29T14:44:10.223Z,1032.3
2016-10-29T14:44:35.800Z,1032.32
2016-10-29T14:45:01.428Z,1032.3
2016-10-29T14:45:26.978Z,1032.29
2016-10-29T14:45:52.536Z,1032.31
2016-10-29T14:46:18.125Z,1032.26
2016-10-29T14:46:43.671Z,1032.32
2016-10-29T14:47:09.218Z,1032.28
2016-10-29T14:47:34.783Z,1032.28
2016-10-29T14:48:00.371Z,1032.18
2016-10-29T14:48:25.920Z,1032.24
2016-10-29T14:48:51.514Z,1032.24
2016-10-29T14:49:17.057Z,1032.27
2016-10-29T14:49:42.648Z,1032.28
2016-10-29T14:50:08.231Z,1032.24
2016-10-29T14:50:33.802Z,1032.23
2016-10-29T14:50:59.408Z,1032.22
2016-10-29T14:51:25.061Z,1032.23
2016-10-29T14:51:50.626Z,1032.24
2016-10-29T14:52:16.185Z,1032.24
2016-10-29T14:52:41.832Z,1032.24
2016-10-29T14:53:07.599Z,1032.25
2016-10-29T14:53:33.273Z,1032.23
2016-10-29T14:53:58.892Z,1032.25
2016-10-29T14:54:24.506Z,1032.22
2016-10-29T14:54:50.190Z,1032.23
2016-10-29T14:55:15.736Z,1032.25
2016-10-29T14:55:41.284Z,1032.23
2016-10-29T14:56:06.906Z,1032.26
2016-10-29T14:56:32.454Z,1032.27
2016-10-29T14:56:58.001Z,1032.26
2016-10-29T14:57:23.707Z,1032.28
2016-10-29T14:57:49.298Z,1032.23
2016-10-29T14:58:14.869Z,1032.28
2016-10-29T14:58:40.435Z,1032.3
2016-10-29T14:59:06.081Z,1032.28
2016-10-29T14:59:31.628Z,1032.29
2016-10-29T14:59:57.199Z,1032.26
2016-10-29T15:00:22.801Z,1032.29
2016-10-29T15:00:48.383Z,1032.32
2016-10-29T15:01:13.947Z,1032.29
2016-10-29T15:01:39.520Z,1032.26
2016-10-29T15:02:05.079Z,1032.31
2016-10-29T15:02:30.640Z,1032.27
2016-10-29T15:02:56.192Z,1032.29
2016-10-29T15:03:21.779Z,1032.3
2016-10-29T15:03:47.463Z,1032.29
2016-10-29T15:04:13.044Z,1032.28
2016-10-29T15:04:38.610Z,1032.27
2016-10-29T15:05:04.156Z,1032.26
2016-10-29T15:05:29.773Z,1032.27
2016-10-29T15:05:55.322Z,1032.28
2016-10-29T15:06:20.884Z,1032.27
2016-10-29T15:06:46.464Z,1032.22
2016-10-29T15:07:12.047Z,1032.22
2016-10-29T15:07:37.618Z,1032.2
2016-10-29T15:08:03.272Z,1032.24
2016-10-29T15:08:28.837Z,1032.19
2016-10-29T15:08:54.471Z,1032.15
2016-10-29T15:09:20.106Z,1032.19
2016-10-29T15:09:45.671Z,1032.2
2016-10-29T15:10:11.218Z,1032.19
2016-10-29T15:10:36.781Z,1032.17
2016-10-29T15:11:02.396Z,1032.15
2016-10-29T15:11:28.169Z,1032.17
2016-10-29T15:11:53.713Z,1032.15
2016-10-29T15:12:19.276Z,1032.17
2016-10-29T15:12:44.814Z,1032.24
2016-10-29T15:13:10.393Z,1032.14
2016-10-29T15:13:35.960Z,1032.22
2016-10-29T15:14:01.513Z,1032.17
2016-10-29T15:14:27.079Z,1032.17
2016-10-29T15:14:52.767Z,1032.18
2016-10-29T15:15:18.357Z,1032.16
2016-10-29T15:15:43.913Z,1032.2
2016-10-29T15:16:09.497Z,1032.19
2016-10-29T15:16:35.074Z,1032.14
2016-10-29T15:17:00.653Z,1032.14
2016-10-29T15:17:26.224Z,1032.2
2016-10-29T15:17:51.810Z,1032.15
2016-10-29T15:18:17.597Z,1032.22
2016-10-29T15:18:43.243Z,1032.17
2016-10-29T15:19:08.877Z,1032.19
2016-10-29T15:19:34.442Z,1032.19
2016-10-29T15:20:00.004Z,1032.21
2016-10-29T15:20:25.710Z,1032.24
2016-10-29T15:20:51.293Z,1032.22
2016-10-29T15:21:16.849Z,1032.2
2016-10-29T15:21:42.425Z,1032.28
2016-10-29T15:22:08.006Z,1032.22
2016-10-29T15:22:33.564Z,1032.2
2016-10-29T15:22:59.120Z,1032.2
2016-10-29T15:23:24.683Z,1032.27
2016-10-29T15:23:50.261Z,1032.2
2016-10-29T15:24:15.912Z,1032.19
2016-10-29T15:24:41.485Z,1032.18
2016-10-29T15:25:07.082Z,1032.22
2016-10-29T15:25:32.663Z,1032.19
2016-10-29T15:25:58.223Z,1032.22
2016-10-29T15:26:23.772Z,1032.22
2016-10-29T15:26:49.871Z,1032.21
2016-10-29T15:27:15.492Z,1032.2
2016-10-29T15:27:41.037Z,1032.17
2016-10-29T15:28:06.589Z,1032.2
2016-10-29T15:28:32.147Z,1032.22
2016-10-29T15:28:57.773Z,1032.21
2016-10-29T15:29:23.358Z,1032.19